createdAt,value
2018-07-01T00:00:54.517Z,19.14
2018-07-01T00:03:23.687Z,19.12
2018-07-01T00:05:52.429Z,19.12
2018-07-01T00:08:21.206Z,19.13
2018-07-01T00:10:49.992Z,19.15
2018-07-01T00:13:18.979Z,19.16
2018-07-01T00:15:47.706Z,19.18
2018-07-01T00:18:16.382Z,19.21
2018-07-01T00:20:45.115Z,19.22
2018-07-01T00:23:13.813Z,19.20
2018-07-01T00:25:42.517Z,19.20
2018-07-01T00:28:11.638Z,19.24
2018-07-01T00:30:40.393Z,19.26
2018-07-01T00:33:09.117Z,19.27
2018-07-01T00:35:38.247Z,19.28
2018-07-01T00:38:07.053Z,19.30
2018-07-01T00:40:35.830Z,19.27
2018-07-01T00:43:04.652Z,19.27
2018-07-01T00:45:39.761Z,19.24
2018-07-01T00:48:08.970Z,19.17
2018-07-01T00:50:37.773Z,19.16
2018-07-01T00:53:06.538Z,19.10
2018-07-01T00:55:35.249Z,19.15
2018-07-01T00:58:04.091Z,19.15
2018-07-01T01:00:34.766Z,19.08
2018-07-01T01:03:04.337Z,19.04
2018-07-01T01:05:33.777Z,18.96
2018-07-01T01:08:02.529Z,18.93
2018-07-01T01:10:31.271Z,18.88
2018-07-01T01:13:00.315Z,18.83
2018-07-01T01:15:29.042Z,18.84
2018-07-01T01:17:57.810Z,18.82
2018-07-01T01:20:26.629Z,18.76
2018-07-01T01:22:55.416Z,18.72
2018-07-01T01:25:24.171Z,18.64
2018-07-01T01:27:52.851Z,18.59
2018-07-01T01:30:21.979Z,18.53
2018-07-01T01:32:50.723Z,18.46
2018-07-01T01:35:19.518Z,18.34
2018-07-01T01:37:48.353Z,18.21
2018-07-01T01:40:19.691Z,18.11
2018-07-01T01:42:54.379Z,17.96
2018-07-01T01:45:29.513Z,17.92
2018-07-01T01:48:02.670Z,17.90
2018-07-01T01:51:09.358Z,17.87
2018-07-01T01:53:56.674Z,17.76
2018-07-01T01:56:39.560Z,17.73
2018-07-01T01:59:16.583Z,17.68
2018-07-01T02:01:51.618Z,17.64
2018-07-01T02:04:38.815Z,17.57
2018-07-01T02:07:12.115Z,17.51
2018-07-01T02:09:40.934Z,17.45
2018-07-01T02:12:11.959Z,17.45
2018-07-01T02:14:44.680Z,17.45
2018-07-01T02:17:17.942Z,17.39
2018-07-01T02:19:47.178Z,17.33
2018-07-01T02:22:18.809Z,17.30
2018-07-01T02:24:49.322Z,17.32
2018-07-01T02:27:18.151Z,17.28
2018-07-01T02:29:46.940Z,17.25
2018-07-01T02:32:15.720Z,17.17
2018-07-01T02:34:44.484Z,17.13
2018-07-01T02:37:13.190Z,17.16
2018-07-01T02:39:42.278Z,17.10
2018-07-01T02:42:11.095Z,17.07
2018-07-01T02:44:39.790Z,17.06
2018-07-01T02:47:08.923Z,17.07
2018-07-01T02:49:37.639Z,17.05
2018-07-01T02:52:06.429Z,17.04
2018-07-01T02:54:35.178Z,16.99
2018-07-01T02:57:03.875Z,16.95
2018-07-01T02:59:32.643Z,16.88
2018-07-01T03:02:01.446Z,16.87
2018-07-01T03:04:30.172Z,16.82
2018-07-01T03:06:58.958Z,16.84
2018-07-01T03:09:27.782Z,16.85
2018-07-01T03:11:56.522Z,16.79
2018-07-01T03:14:25.297Z,16.83
2018-07-01T03:16:54.017Z,16.83
2018-07-01T03:19:22.761Z,16.81
2018-07-01T03:21:51.469Z,16.79
2018-07-01T03:24:20.176Z,16.79
2018-07-01T03:26:48.875Z,16.88
2018-07-01T03:29:17.659Z,16.92
2018-07-01T03:31:46.386Z,16.94
2018-07-01T03:34:15.070Z,16.93
2018-07-01T03:36:43.825Z,16.88
2018-07-01T03:39:12.647Z,16.88
2018-07-01T03:41:41.394Z,16.89
2018-07-01T03:44:10.155Z,16.95
2018-07-01T03:46:38.979Z,16.93
2018-07-01T03:49:07.982Z,16.94
2018-07-01T03:51:36.794Z,16.90
2018-07-01T03:54:05.986Z,16.94
2018-07-01T03:56:34.954Z,16.95
2018-07-01T03:59:03.723Z,16.95
2018-07-01T04:01:32.515Z,16.99
2018-07-01T04:04:01.260Z,16.99
2018-07-01T04:06:30.007Z,16.94
2018-07-01T04:08:58.781Z,16.99
2018-07-01T04:11:27.534Z,17.02
2018-07-01T04:13:56.290Z,17.00
2018-07-01T04:16:25.051Z,17.04
2018-07-01T04:18:53.826Z,17.09
2018-07-01T04:21:22.550Z,17.10
2018-07-01T04:23:51.306Z,17.09
2018-07-01T04:26:20.063Z,17.09
2018-07-01T04:28:48.858Z,17.07
2018-07-01T04:31:17.960Z,17.11
2018-07-01T04:33:47.102Z,17.12
2018-07-01T04:36:15.878Z,17.16
2018-07-01T04:38:44.573Z,17.18
2018-07-01T04:41:13.310Z,17.24
2018-07-01T04:43:42.082Z,17.28
2018-07-01T04:46:10.798Z,17.33
2018-07-01T04:48:39.538Z,17.50
2018-07-01T04:51:08.388Z,17.85
2018-07-01T04:53:37.122Z,18.44
2018-07-01T04:56:05.946Z,19.41
2018-07-01T04:58:34.778Z,20.20
2018-07-01T05:01:03.900Z,20.70
2018-07-01T05:03:32.630Z,21.28
2018-07-01T05:06:01.318Z,21.78
2018-07-01T05:08:30.075Z,22.21
2018-07-01T05:10:58.870Z,22.47
2018-07-01T05:13:27.663Z,22.49
2018-07-01T05:15:56.951Z,22.37
2018-07-01T05:18:25.650Z,22.55
2018-07-01T05:20:54.393Z,22.89
2018-07-01T05:23:23.120Z,23.04
2018-07-01T05:25:51.885Z,23.11
2018-07-01T05:28:20.594Z,23.13
2018-07-01T05:30:49.379Z,23.63
2018-07-01T05:33:18.479Z,24.13
2018-07-01T05:35:47.299Z,24.82
2018-07-01T05:38:16.114Z,24.64
2018-07-01T05:40:44.886Z,24.21
2018-07-01T05:43:13.712Z,23.42
2018-07-01T05:45:42.816Z,23.72
2018-07-01T05:48:11.585Z,23.80
2018-07-01T05:50:40.313Z,23.84
2018-07-01T05:53:09.035Z,23.70
2018-07-01T05:55:37.814Z,23.40
2018-07-01T05:58:06.922Z,22.95
2018-07-01T06:00:35.874Z,22.19
2018-07-01T06:03:05.067Z,21.84
2018-07-01T06:05:33.770Z,21.88
2018-07-01T06:08:02.663Z,22.17
2018-07-01T06:10:31.409Z,21.45
2018-07-01T06:13:00.218Z,20.61
2018-07-01T06:15:28.970Z,20.27
2018-07-01T06:17:57.690Z,20.07
2018-07-01T06:20:26.431Z,20.02
2018-07-01T06:22:55.245Z,19.90
2018-07-01T06:25:24.194Z,19.65
2018-07-01T06:27:52.969Z,19.69
2018-07-01T06:30:21.862Z,19.59
2018-07-01T06:32:50.598Z,19.50
2018-07-01T06:35:19.937Z,19.31
2018-07-01T06:37:48.710Z,19.14
2018-07-01T06:40:17.441Z,19.05
2018-07-01T06:42:46.274Z,19.13
2018-07-01T06:45:15.008Z,19.26
2018-07-01T06:47:43.812Z,19.33
2018-07-01T06:50:12.954Z,19.08
2018-07-01T06:52:41.686Z,18.96
2018-07-01T06:55:10.463Z,18.79
2018-07-01T06:57:39.207Z,18.81
2018-07-01T07:00:08.088Z,18.81
2018-07-01T07:02:37.238Z,18.62
2018-07-01T07:05:06.100Z,18.72
2018-07-01T07:07:34.934Z,18.82
2018-07-01T07:10:03.790Z,18.81
2018-07-01T07:12:33.292Z,18.72
2018-07-01T07:15:02.079Z,18.79
2018-07-01T07:17:30.838Z,18.73
2018-07-01T07:19:59.624Z,18.76
2018-07-01T07:22:28.395Z,18.74
2018-07-01T07:24:57.106Z,18.81
2018-07-01T07:27:25.885Z,18.88
2018-07-01T07:29:54.587Z,18.93
2018-07-01T07:32:23.281Z,19.01
2018-07-01T07:34:52.021Z,19.01
2018-07-01T07:37:20.794Z,19.04
2018-07-01T07:39:49.516Z,19.01
2018-07-01T07:42:18.264Z,19.09
2018-07-01T07:44:47.011Z,19.18
2018-07-01T07:47:15.962Z,19.17
2018-07-01T07:49:44.812Z,19.18
2018-07-01T07:52:13.589Z,19.27
2018-07-01T07:54:42.604Z,19.42
2018-07-01T07:57:11.353Z,19.54
2018-07-01T07:59:40.073Z,19.50
2018-07-01T08:02:09.131Z,19.63
2018-07-01T08:04:37.945Z,19.57
2018-07-01T08:07:06.879Z,19.57
2018-07-01T08:09:35.679Z,19.42
2018-07-01T08:12:04.563Z,19.49
2018-07-01T08:14:33.284Z,19.50
2018-07-01T08:17:02.069Z,19.56
2018-07-01T08:19:31.499Z,19.63
2018-07-01T08:22:00.298Z,19.75
2018-07-01T08:24:29.054Z,19.82
2018-07-01T08:26:57.804Z,19.99
2018-07-01T08:29:26.505Z,20.03
2018-07-01T08:31:55.263Z,20.05
2018-07-01T08:34:23.958Z,20.03
2018-07-01T08:36:53.077Z,20.13
2018-07-01T08:39:21.837Z,20.21
2018-07-01T08:42:04.145Z,20.07
2018-07-01T08:44:32.889Z,20.19
2018-07-01T08:47:01.666Z,20.31
2018-07-01T08:49:30.403Z,20.39
2018-07-01T08:51:59.886Z,20.49
2018-07-01T08:54:28.662Z,20.45
2018-07-01T08:56:57.426Z,20.51
2018-07-01T08:59:26.194Z,20.63
2018-07-01T09:01:54.953Z,20.61
2018-07-01T09:04:23.756Z,20.57
2018-07-01T09:06:52.492Z,20.61
2018-07-01T09:09:21.624Z,20.81
2018-07-01T09:11:50.435Z,20.83
2018-07-01T09:14:19.309Z,20.82
2018-07-01T09:16:48.090Z,20.83
2018-07-01T09:19:17.013Z,20.90
2018-07-01T09:21:45.796Z,20.85
2018-07-01T09:24:14.579Z,20.78
2018-07-01T09:26:43.446Z,20.93
2018-07-01T09:29:12.470Z,21.15
2018-07-01T09:31:41.198Z,21.23
2018-07-01T09:34:09.914Z,21.11
2018-07-01T09:36:38.698Z,21.16
2018-07-01T09:39:09.672Z,21.21
2018-07-01T09:41:38.455Z,21.36
2018-07-01T09:44:07.352Z,21.58
2018-07-01T09:46:36.761Z,21.54
2018-07-01T09:49:05.636Z,21.41
2018-07-01T09:51:34.714Z,21.47
2018-07-01T09:54:03.642Z,21.57
2018-07-01T09:56:32.432Z,21.48
2018-07-01T09:59:01.204Z,21.45
2018-07-01T10:01:31.025Z,21.54
2018-07-01T10:03:59.805Z,21.67
2018-07-01T10:06:28.987Z,21.77
2018-07-01T10:08:58.488Z,21.89
2018-07-01T10:11:27.582Z,22.04
2018-07-01T10:13:56.475Z,21.95
2018-07-01T10:16:25.228Z,22.01
2018-07-01T10:18:54.149Z,22.01
2018-07-01T10:21:23.013Z,22.08
2018-07-01T10:23:51.729Z,22.10
2018-07-01T10:26:20.477Z,22.02
2018-07-01T10:29:10.339Z,22.05
2018-07-01T10:31:39.740Z,22.12
2018-07-01T10:34:10.057Z,22.10
2018-07-01T10:36:38.881Z,21.98
2018-07-01T10:39:11.934Z,21.96
2018-07-01T10:41:40.767Z,22.15
2018-07-01T10:44:09.897Z,22.27
2018-07-01T10:46:39.018Z,22.29
2018-07-01T10:49:07.836Z,22.19
2018-07-01T10:51:36.697Z,22.11
2018-07-01T10:54:05.858Z,22.02
2018-07-01T10:56:34.657Z,22.00
2018-07-01T10:59:03.386Z,22.02
2018-07-01T11:01:32.133Z,22.02
2018-07-01T11:04:01.199Z,22.10
2018-07-01T11:06:30.319Z,22.13
2018-07-01T11:08:59.121Z,22.29
2018-07-01T11:11:27.833Z,22.30
2018-07-01T11:13:56.610Z,22.37
2018-07-01T11:16:25.752Z,22.49
2018-07-01T11:18:54.538Z,22.58
2018-07-01T11:21:23.283Z,22.50
2018-07-01T11:23:52.106Z,22.46
2018-07-01T11:26:20.852Z,22.50
2018-07-01T11:28:49.656Z,22.54
2018-07-01T11:31:18.437Z,22.70
2018-07-01T11:33:47.162Z,22.77
2018-07-01T11:36:16.026Z,22.86
2018-07-01T11:38:44.809Z,22.79
2018-07-01T11:41:13.530Z,22.86
2018-07-01T11:43:42.279Z,22.89
2018-07-01T11:46:11.076Z,22.98
2018-07-01T11:48:40.255Z,23.15
2018-07-01T11:51:09.011Z,23.20
2018-07-01T11:53:37.745Z,23.00
2018-07-01T11:56:06.957Z,22.96
2018-07-01T11:58:35.683Z,23.00
2018-07-01T12:01:04.464Z,23.10
2018-07-01T12:03:33.179Z,23.19
2018-07-01T12:06:01.926Z,23.17
2018-07-01T12:08:30.645Z,23.20
2018-07-01T12:10:59.396Z,23.21
2018-07-01T12:13:28.154Z,23.27
2018-07-01T12:15:56.879Z,23.27
2018-07-01T12:18:25.584Z,23.37
2018-07-01T12:20:54.288Z,23.38
2018-07-01T12:23:23.048Z,23.35
2018-07-01T12:25:52.023Z,23.35
2018-07-01T12:28:20.746Z,23.30
2018-07-01T12:30:49.562Z,23.39
2018-07-01T12:33:18.292Z,23.50
2018-07-01T12:35:47.016Z,23.54
2018-07-01T12:38:16.156Z,23.59
2018-07-01T12:40:44.888Z,23.68
2018-07-01T12:43:13.696Z,23.71
2018-07-01T12:45:42.515Z,23.70
2018-07-01T12:48:11.267Z,23.71
2018-07-01T12:50:40.082Z,23.66
2018-07-01T12:53:09.292Z,23.70
2018-07-01T12:55:38.066Z,23.65
2018-07-01T12:58:07.268Z,23.69
2018-07-01T13:00:35.974Z,23.75
2018-07-01T13:03:04.750Z,23.74
2018-07-01T13:05:33.502Z,23.76
2018-07-01T13:08:02.332Z,23.88
2018-07-01T13:10:31.081Z,23.88
2018-07-01T13:12:59.821Z,23.84
2018-07-01T13:15:28.582Z,23.88
2018-07-01T13:17:57.713Z,23.88
2018-07-01T13:20:26.820Z,24.07
2018-07-01T13:22:55.588Z,24.24
2018-07-01T13:25:24.308Z,24.12
2018-07-01T13:27:53.020Z,24.13
2018-07-01T13:30:21.758Z,24.36
2018-07-01T13:32:56.900Z,24.47
2018-07-01T13:35:25.632Z,24.58
2018-07-01T13:37:54.958Z,24.45
2018-07-01T13:40:23.721Z,24.45
2018-07-01T13:42:52.469Z,24.36
2018-07-01T13:45:21.478Z,24.37
2018-07-01T13:47:50.226Z,24.24
2018-07-01T13:50:18.938Z,24.14
2018-07-01T13:52:47.669Z,23.89
2018-07-01T13:55:16.462Z,23.76
2018-07-01T13:57:45.225Z,23.69
2018-07-01T14:00:14.055Z,23.66
2018-07-01T14:02:43.208Z,23.67
2018-07-01T14:05:11.887Z,23.61
2018-07-01T14:07:40.652Z,23.53
2018-07-01T14:10:09.474Z,23.51
2018-07-01T14:12:38.269Z,23.53
2018-07-01T14:15:07.090Z,23.67
2018-07-01T14:17:35.897Z,23.70
2018-07-01T14:20:05.332Z,23.50
2018-07-01T14:22:34.035Z,23.44
2018-07-01T14:25:02.803Z,23.49
2018-07-01T14:27:31.576Z,23.52
2018-07-01T14:30:00.338Z,23.55
2018-07-01T14:32:29.061Z,23.55
2018-07-01T14:34:57.807Z,23.51
2018-07-01T14:37:26.621Z,23.50
2018-07-01T14:39:55.359Z,23.41
2018-07-01T14:42:24.135Z,23.53
2018-07-01T14:44:53.156Z,23.55
2018-07-01T14:47:21.891Z,23.54
2018-07-01T14:49:50.653Z,23.68
2018-07-01T14:52:19.497Z,23.74
2018-07-01T14:54:48.400Z,23.76
2018-07-01T14:57:17.344Z,23.79
2018-07-01T14:59:46.113Z,23.85
2018-07-01T15:02:14.857Z,23.86
2018-07-01T15:04:43.595Z,23.92
2018-07-01T15:07:12.388Z,23.88
2018-07-01T15:09:41.139Z,23.82
2018-07-01T15:12:09.900Z,23.87
2018-07-01T15:14:39.235Z,24.01
2018-07-01T15:17:08.316Z,24.03
2018-07-01T15:19:37.128Z,23.96
2018-07-01T15:22:05.947Z,23.98
2018-07-01T15:24:34.780Z,24.04
2018-07-01T15:27:03.922Z,24.02
2018-07-01T15:29:32.605Z,23.91
2018-07-01T15:32:01.345Z,23.91
2018-07-01T15:34:30.445Z,23.79
2018-07-01T15:36:59.236Z,23.78
2018-07-01T15:39:27.928Z,23.78
2018-07-01T15:41:56.649Z,23.74
2018-07-01T15:44:25.401Z,23.72
2018-07-01T15:46:54.140Z,23.51
2018-07-01T15:49:22.865Z,23.45
2018-07-01T15:51:51.706Z,23.57
2018-07-01T15:54:20.426Z,23.68
2018-07-01T15:56:49.184Z,23.78
2018-07-01T15:59:18.206Z,23.87
2018-07-01T16:01:46.948Z,23.94
2018-07-01T16:04:15.769Z,23.88
2018-07-01T16:06:44.542Z,23.74
2018-07-01T16:09:13.393Z,23.71
2018-07-01T16:11:42.284Z,23.65
2018-07-01T16:14:11.158Z,23.44
2018-07-01T16:16:39.893Z,23.34
2018-07-01T16:19:08.759Z,23.28
2018-07-01T16:21:37.527Z,23.27
2018-07-01T16:24:06.691Z,23.31
2018-07-01T16:26:41.011Z,23.33
2018-07-01T16:29:10.241Z,23.28
2018-07-01T16:31:39.323Z,23.18
2018-07-01T16:34:08.125Z,23.07
2018-07-01T16:36:36.886Z,23.05
2018-07-01T16:39:09.459Z,23.07
2018-07-01T16:41:38.162Z,22.99
2018-07-01T16:44:07.988Z,22.93
2018-07-01T16:46:37.645Z,22.95
2018-07-01T16:49:06.435Z,22.95
2018-07-01T16:51:35.254Z,22.88
2018-07-01T16:54:04.385Z,22.82
2018-07-01T16:56:33.114Z,22.73
2018-07-01T16:59:01.932Z,22.65
2018-07-01T17:01:30.662Z,22.62
2018-07-01T17:03:59.350Z,22.56
2018-07-01T17:06:28.095Z,22.45
2018-07-01T17:08:56.811Z,22.41
2018-07-01T17:11:25.623Z,22.38
2018-07-01T17:13:54.666Z,22.45
2018-07-01T17:16:23.460Z,22.42
2018-07-01T17:18:52.212Z,22.40
2018-07-01T17:21:20.931Z,22.35
2018-07-01T17:23:49.662Z,22.29
2018-07-01T17:26:18.406Z,22.18
2018-07-01T17:28:47.629Z,22.09
2018-07-01T17:31:21.519Z,22.07
2018-07-01T17:33:50.267Z,22.04
2018-07-01T17:36:19.086Z,22.03
2018-07-01T17:38:47.811Z,21.99
2018-07-01T17:41:16.546Z,21.90
2018-07-01T17:43:45.319Z,21.89
2018-07-01T17:46:14.081Z,21.82
2018-07-01T17:48:42.809Z,21.78
2018-07-01T17:51:11.601Z,21.72
2018-07-01T17:54:01.429Z,21.68
2018-07-01T17:56:30.225Z,21.59
2018-07-01T17:58:59.881Z,21.55
2018-07-01T18:01:28.634Z,21.46
2018-07-01T18:03:57.384Z,21.40
2018-07-01T18:06:26.239Z,21.35
2018-07-01T18:08:55.018Z,21.33
2018-07-01T18:11:23.802Z,21.22
2018-07-01T18:13:52.556Z,21.13
2018-07-01T18:16:21.354Z,21.10
2018-07-01T18:18:50.125Z,20.93
2018-07-01T18:21:20.254Z,20.84
2018-07-01T18:24:19.491Z,20.77
2018-07-01T18:26:16.970Z,20.72
2018-07-01T18:28:55.767Z,20.68
2018-07-01T18:31:14.869Z,20.78
2018-07-01T18:33:43.588Z,20.75
2018-07-01T18:36:12.393Z,20.75
2018-07-01T18:38:41.333Z,20.63
2018-07-01T18:41:10.092Z,20.49
2018-07-01T18:43:38.916Z,20.45
2018-07-01T18:46:07.795Z,20.05
2018-07-01T18:48:36.797Z,19.41
2018-07-01T18:51:05.607Z,19.15
2018-07-01T18:53:34.308Z,18.91
2018-07-01T18:56:03.105Z,18.82
2018-07-01T18:58:38.286Z,18.70
2018-07-01T19:01:07.210Z,18.57
2018-07-01T19:03:35.972Z,18.51
2018-07-01T19:06:05.262Z,18.51
2018-07-01T19:08:34.045Z,18.49
2018-07-01T19:11:03.245Z,18.45
2018-07-01T19:13:32.418Z,18.41
2018-07-01T19:16:01.845Z,18.40
2018-07-01T19:18:30.905Z,18.39
2018-07-01T19:20:59.822Z,18.43
2018-07-01T19:23:29.035Z,18.47
2018-07-01T19:25:58.034Z,18.55
2018-07-01T19:28:27.393Z,18.60
2018-07-01T19:30:56.173Z,18.51
2018-07-01T19:33:24.913Z,18.44
2018-07-01T19:35:53.582Z,18.31
2018-07-01T19:38:22.373Z,18.26
2018-07-01T19:40:51.153Z,18.18
2018-07-01T19:43:20.012Z,18.02
2018-07-01T19:45:48.913Z,17.96
2018-07-01T19:48:17.800Z,17.99
2018-07-01T19:50:46.709Z,18.00
2018-07-01T19:53:15.482Z,18.03
2018-07-01T19:55:44.254Z,18.07
2018-07-01T19:58:13.697Z,18.11
2018-07-01T20:00:42.533Z,18.13
2018-07-01T20:03:11.622Z,18.15
2018-07-01T20:05:40.426Z,18.17
2018-07-01T20:08:09.227Z,18.25
2018-07-01T20:10:37.980Z,18.31
2018-07-01T20:13:07.112Z,18.44
2018-07-01T20:15:36.073Z,18.48
2018-07-01T20:18:05.221Z,18.53
2018-07-01T20:20:33.968Z,18.60
2018-07-01T20:23:02.761Z,18.63
2018-07-01T20:25:31.597Z,18.68
2018-07-01T20:28:00.447Z,18.71
2018-07-01T20:30:29.273Z,18.72
2018-07-01T20:32:58.303Z,18.71
2018-07-01T20:35:28.737Z,18.72
2018-07-01T20:37:57.473Z,18.73
2018-07-01T20:40:26.528Z,18.69
2018-07-01T20:42:55.281Z,18.67
2018-07-01T20:45:24.117Z,18.63
2018-07-01T20:47:59.146Z,18.65
2018-07-01T20:50:28.004Z,18.70
2018-07-01T20:52:57.302Z,18.68
2018-07-01T20:55:29.455Z,18.72
2018-07-01T20:57:58.251Z,18.74
2018-07-01T21:00:27.077Z,18.74
2018-07-01T21:02:55.825Z,18.71
2018-07-01T21:05:24.670Z,18.67
2018-07-01T21:07:53.590Z,18.68
2018-07-01T21:10:22.326Z,18.69
2018-07-01T21:12:51.123Z,18.72
2018-07-01T21:15:19.868Z,18.66
2018-07-01T21:17:48.635Z,18.60
2018-07-01T21:20:17.562Z,18.62
2018-07-01T21:22:46.790Z,18.61
2018-07-01T21:25:15.536Z,18.66
2018-07-01T21:27:44.341Z,18.68
2018-07-01T21:30:13.293Z,18.70
2018-07-01T21:32:42.075Z,18.72
2018-07-01T21:35:11.284Z,18.73
2018-07-01T21:37:40.209Z,18.70
2018-07-01T21:40:09.141Z,18.63
2018-07-01T21:42:38.087Z,18.62
2018-07-01T21:45:07.714Z,18.60
2018-07-01T21:47:36.714Z,18.57
2018-07-01T21:50:06.204Z,18.58
2018-07-01T21:52:35.150Z,18.64
2018-07-01T21:55:04.182Z,18.73
2018-07-01T21:57:32.978Z,18.76
2018-07-01T22:00:01.950Z,18.72
2018-07-01T22:02:30.974Z,18.74
2018-07-01T22:04:59.722Z,18.72
2018-07-01T22:07:28.662Z,18.72
2018-07-01T22:09:57.401Z,18.69
2018-07-01T22:12:37.517Z,18.71
2018-07-01T22:16:16.273Z,18.66
2018-07-01T22:18:45.247Z,18.61
2018-07-01T22:21:14.234Z,18.65
2018-07-01T22:23:43.207Z,18.67
2018-07-01T22:26:12.117Z,18.66
2018-07-01T22:28:41.183Z,18.49
2018-07-01T22:31:10.171Z,18.35
2018-07-01T22:33:39.094Z,18.19
2018-07-01T22:36:08.371Z,18.11
2018-07-01T22:38:37.327Z,18.09
2018-07-01T22:41:06.243Z,17.99
2018-07-01T22:43:35.194Z,17.83
2018-07-01T22:46:04.152Z,17.57
2018-07-01T22:48:33.149Z,17.61
2018-07-01T22:51:02.069Z,17.62
2018-07-01T22:53:30.987Z,17.65
2018-07-01T22:55:59.729Z,17.74
2018-07-01T22:58:28.503Z,17.63
2018-07-01T23:00:57.482Z,17.56
2018-07-01T23:03:26.490Z,17.51
2018-07-01T23:05:55.406Z,17.41
2018-07-01T23:08:24.406Z,17.42
2018-07-01T23:10:53.358Z,17.34
2018-07-01T23:13:22.145Z,17.33
2018-07-01T23:15:51.069Z,17.18
2018-07-01T23:18:20.006Z,16.97
2018-07-01T23:20:48.781Z,16.59
2018-07-01T23:23:17.774Z,16.20
2018-07-01T23:25:46.762Z,15.80
2018-07-01T23:28:15.715Z,15.68
2018-07-01T23:30:44.657Z,15.68
2018-07-01T23:33:13.634Z,15.52
2018-07-01T23:35:42.574Z,15.51
2018-07-01T23:38:11.493Z,15.48
2018-07-01T23:40:40.454Z,15.55
2018-07-01T23:43:09.353Z,15.56
2018-07-01T23:45:38.282Z,15.72
2018-07-01T23:48:07.374Z,15.76
2018-07-01T23:50:36.181Z,15.71
2018-07-01T23:53:05.157Z,15.61
2018-07-01T23:55:34.065Z,15.52
2018-07-01T23:58:03.036Z,15.47
